sensor_id;sensor_type;location;lat;lon;timestamp;pressure;altitude;pressure_sealevel;temperature;humidity
10466;BME280;5280;42.600;23.556;2023-01-25T00:00:44;94454.25;;;1.85;100.00
10466;BME280;5280;42.600;23.556;2023-01-25T00:03:13;94451.78;;;1.80;100.00
10466;BME280;5280;42.600;23.556;2023-01-25T00:05:40;94442.31;;;1.78;100.00
10466;BME280;5280;42.600;23.556;2023-01-25T00:08:10;94452.03;;;1.72;100.00
10466;BME280;5280;42.600;23.556;2023-01-25T00:10:38;94450.22;;;1.74;100.00
10466;BME280;5280;42.600;23.556;2023-01-25T00:13:05;94447.59;;;1.74;100.00
10466;BME280;5280;42.600;23.556;2023-01-25T00:15:36;94447.81;;;1.68;100.00
10466;BME280;5280;42.600;23.556;2023-01-25T00:18:04;94459.84;;;1.72;100.00
10466;BME280;5280;42.600;23.556;2023-01-25T00:20:31;94447.16;;;1.60;100.00
10466;BME280;5280;42.600;23.556;2023-01-25T00:22:58;94450.31;;;1.71;100.00
10466;BME280;5280;42.600;23.556;2023-01-25T00:25:27;94443.66;;;1.61;100.00
10466;BME280;5280;42.600;23.556;2023-01-25T00:27:55;94443.88;;;1.54;100.00
10466;BME280;5280;42.600;23.556;2023-01-25T00:30:22;94450.97;;;1.49;100.00
10466;BME280;5280;42.600;23.556;2023-01-25T00:32:53;94445.63;;;1.53;100.00
10466;BME280;5280;42.600;23.556;2023-01-25T00:35:30;94449.88;;;1.56;100.00
10466;BME280;5280;42.600;23.556;2023-01-25T00:38:01;94445.56;;;1.55;100.00
10466;BME280;5280;42.600;23.556;2023-01-25T00:40:32;94443.88;;;1.54;100.00
10466;BME280;5280;42.600;23.556;2023-01-25T00:43:02;94436.09;;;1.52;100.00
10466;BME280;5280;42.600;23.556;2023-01-25T00:45:30;94454.91;;;1.63;100.00
10466;BME280;5280;42.600;23.556;2023-01-25T00:47:57;94454.06;;;1.61;100.00
10466;BME280;5280;42.600;23.556;2023-01-25T00:50:24;94449.84;;;1.57;100.00
10466;BME280;5280;42.600;23.556;2023-01-25T00:52:51;94453.44;;;1.53;100.00
10466;BME280;5280;42.600;23.556;2023-01-25T00:55:20;94457.09;;;1.46;100.00
10466;BME280;5280;42.600;23.556;2023-01-25T00:57:49;94453.50;;;1.50;100.00
10466;BME280;5280;42.600;23.556;2023-01-25T01:00:16;94443.22;;;1.46;100.00
10466;BME280;5280;42.600;23.556;2023-01-25T01:02:43;94446.69;;;1.46;100.00
10466;BME280;5280;42.600;23.556;2023-01-25T01:05:18;94427.09;;;1.33;100.00
10466;BME280;5280;42.600;23.556;2023-01-25T01:07:48;94443.19;;;1.47;100.00
10466;BME280;5280;42.600;23.556;2023-01-25T01:10:16;94450.31;;;1.41;100.00
10466;BME280;5280;42.600;23.556;2023-01-25T01:12:43;94436.53;;;1.37;100.00
10466;BME280;5280;42.600;23.556;2023-01-25T01:15:12;94406.59;;;1.21;100.00
10466;BME280;5280;42.600;23.556;2023-01-25T01:17:39;94456.25;;;1.46;100.00
10466;BME280;5280;42.600;23.556;2023-01-25T01:20:07;94441.63;;;1.40;100.00
10466;BME280;5280;42.600;23.556;2023-01-25T01:22:35;94440.84;;;1.38;100.00
10466;BME280;5280;42.600;23.556;2023-01-25T01:25:02;94447.66;;;1.42;100.00
10466;BME280;5280;42.600;23.556;2023-01-25T01:27:29;94436.53;;;1.37;100.00
10466;BME280;5280;42.600;23.556;2023-01-25T01:29:56;94449.28;;;1.46;100.00
10466;BME280;5280;42.600;23.556;2023-01-25T01:32:25;94455.47;;;1.42;100.00
10466;BME280;5280;42.600;23.556;2023-01-25T01:34:52;94423.94;;;1.20;100.00
10466;BME280;5280;42.600;23.556;2023-01-25T01:37:20;94440.28;;;1.27;100.00
10466;BME280;5280;42.600;23.556;2023-01-25T01:39:50;94443.84;;;1.23;100.00
10466;BME280;5280;42.600;23.556;2023-01-25T01:42:17;94439.56;;;1.20;100.00
10466;BME280;5280;42.600;23.556;2023-01-25T01:44:48;94431.81;;;1.19;100.00
10466;BME280;5280;42.600;23.556;2023-01-25T01:47:20;94413.50;;;1.22;100.00
10466;BME280;5280;42.600;23.556;2023-01-25T01:49:52;94423.75;;;1.28;100.00
10466;BME280;5280;42.600;23.556;2023-01-25T01:52:24;94411.59;;;1.28;100.00
10466;BME280;5280;42.600;23.556;2023-01-25T01:54:56;94411.47;;;1.33;100.00
10466;BME280;5280;42.600;23.556;2023-01-25T01:57:28;94421.94;;;1.30;100.00
10466;BME280;5280;42.600;23.556;2023-01-25T02:00:02;94413.31;;;1.29;100.00
10466;BME280;5280;42.600;23.556;2023-01-25T02:02:30;94422.66;;;1.37;100.00
10466;BME280;5280;42.600;23.556;2023-01-25T02:05:00;94418.63;;;1.25;100.00
10466;BME280;5280;42.600;23.556;2023-01-25T02:07:32;94414.50;;;1.18;100.00
10466;BME280;5280;42.600;23.556;2023-01-25T02:10:01;94418.00;;;1.15;100.00
10466;BME280;5280;42.600;23.556;2023-01-25T02:12:29;94410.28;;;1.14;100.00
10466;BME280;5280;42.600;23.556;2023-01-25T02:14:57;94413.50;;;1.22;100.00
10466;BME280;5280;42.600;23.556;2023-01-25T02:17:26;94419.72;;;1.16;100.00
10466;BME280;5280;42.600;23.556;2023-01-25T02:19:59;94407.72;;;1.11;100.00
10466;BME280;5280;42.600;23.556;2023-01-25T02:22:32;94419.84;;;1.12;100.00
10466;BME280;5280;42.600;23.556;2023-01-25T02:25:06;94415.53;;;1.11;100.00
10466;BME280;5280;42.600;23.556;2023-01-25T02:27:37;94430.00;;;1.21;100.00
10466;BME280;5280;42.600;23.556;2023-01-25T02:30:15;94437.91;;;1.18;100.00
10466;BME280;5280;42.600;23.556;2023-01-25T02:32:42;94429.09;;;1.23;100.00
10466;BME280;5280;42.600;23.556;2023-01-25T02:35:17;94429.09;;;1.23;100.00
10466;BME280;5280;42.600;23.556;2023-01-25T02:37:45;94421.00;;;1.34;100.00
10466;BME280;5280;42.600;23.556;2023-01-25T02:40:13;94400.59;;;1.19;100.00
10466;BME280;5280;42.600;23.556;2023-01-25T02:42:41;94402.97;;;1.26;100.00
10466;BME280;5280;42.600;23.556;2023-01-25T02:45:14;94408.94;;;1.30;100.00
10466;BME280;5280;42.600;23.556;2023-01-25T02:47:42;94408.09;;;1.29;100.00
10466;BME280;5280;42.600;23.556;2023-01-25T02:50:10;94402.22;;;1.21;100.00
10466;BME280;5280;42.600;23.556;2023-01-25T02:52:39;94421.00;;;1.34;100.00
10466;BME280;5280;42.600;23.556;2023-01-25T02:55:07;94417.47;;;1.35;100.00
10466;BME280;5280;42.600;23.556;2023-01-25T02:57:38;94412.47;;;1.29;100.00
10466;BME280;5280;42.600;23.556;2023-01-25T03:00:07;94418.47;;;1.31;100.00
10466;BME280;5280;42.600;23.556;2023-01-25T03:02:34;94409.13;;;1.24;100.00
10466;BME280;5280;42.600;23.556;2023-01-25T03:05:01;94417.13;;;1.16;100.00
10466;BME280;5280;42.600;23.556;2023-01-25T03:07:30;94408.47;;;1.16;100.00
10466;BME280;5280;42.600;23.556;2023-01-25T03:09:57;94422.03;;;1.27;100.00
10466;BME280;5280;42.600;23.556;2023-01-25T03:12:24;94418.31;;;1.36;100.00
10466;BME280;5280;42.600;23.556;2023-01-25T03:14:52;94390.50;;;1.07;100.00
10466;BME280;5280;42.600;23.556;2023-01-25T03:17:20;94398.00;;;1.17;100.00
10466;BME280;5280;42.600;23.556;2023-01-25T03:19:51;94397.00;;;1.23;100.00
10466;BME280;5280;42.600;23.556;2023-01-25T03:22:18;94410.75;;;1.28;100.00
10466;BME280;5280;42.600;23.556;2023-01-25T03:24:45;94412.25;;;1.35;100.00
10466;BME280;5280;42.600;23.556;2023-01-25T03:27:16;94412.38;;;1.32;100.00
10466;BME280;5280;42.600;23.556;2023-01-25T03:29:43;94411.31;;;1.39;100.00
10466;BME280;5280;42.600;23.556;2023-01-25T03:32:12;94415.69;;;1.37;100.00
10466;BME280;5280;42.600;23.556;2023-01-25T03:34:40;94420.13;;;1.34;100.00
10466;BME280;5280;42.600;23.556;2023-01-25T03:37:07;94411.34;;;1.38;100.00
10466;BME280;5280;42.600;23.556;2023-01-25T03:39:34;94412.03;;;1.44;100.00
10466;BME280;5280;42.600;23.556;2023-01-25T03:42:01;94412.03;;;1.44;100.00
10466;BME280;5280;42.600;23.556;2023-01-25T03:44:29;94415.53;;;1.43;100.00
10466;BME280;5280;42.600;23.556;2023-01-25T03:47:02;94413.81;;;1.42;100.00
10466;BME280;5280;42.600;23.556;2023-01-25T03:49:32;94404.16;;;1.46;100.00
10466;BME280;5280;42.600;23.556;2023-01-25T03:51:59;94386.16;;;1.38;100.00
10466;BME280;5280;42.600;23.556;2023-01-25T03:54:27;94408.28;;;1.54;100.00
10466;BME280;5280;42.600;23.556;2023-01-25T03:56:54;94408.19;;;1.57;100.00
10466;BME280;5280;42.600;23.556;2023-01-25T03:59:25;94365.63;;;1.27;100.00
10466;BME280;5280;42.600;23.556;2023-01-25T04:01:59;94405.78;;;1.50;100.00
10466;BME280;5280;42.600;23.556;2023-01-25T04:04:28;94402.22;;;1.54;100.00
10466;BME280;5280;42.600;23.556;2023-01-25T04:06:57;94404.63;;;1.60;100.00
10466;BME280;5280;42.600;23.556;2023-01-25T04:09:24;94406.63;;;1.50;100.00
10466;BME280;5280;42.600;23.556;2023-01-25T04:11:51;94410.03;;;1.54;100.00
10466;BME280;5280;42.600;23.556;2023-01-25T04:14:24;94394.59;;;1.46;100.00
10466;BME280;5280;42.600;23.556;2023-01-25T04:16:52;94378.28;;;1.40;100.00
10466;BME280;5280;42.600;23.556;2023-01-25T04:19:19;94405.59;;;1.56;100.00
10466;BME280;5280;42.600;23.556;2023-01-25T04:21:46;94412.63;;;1.54;100.00
10466;BME280;5280;42.600;23.556;2023-01-25T04:24:15;94399.00;;;1.44;100.00
10466;BME280;5280;42.600;23.556;2023-01-25T04:26:42;94400.63;;;1.48;100.00
10466;BME280;5280;42.600;23.556;2023-01-25T04:29:09;94397.50;;;1.36;100.00
10466;BME280;5280;42.600;23.556;2023-01-25T04:31:37;94394.72;;;1.42;100.00
10466;BME280;5280;42.600;23.556;2023-01-25T04:34:04;94401.50;;;1.47;100.00
10466;BME280;5280;42.600;23.556;2023-01-25T04:36:31;94406.63;;;1.50;100.00
10466;BME280;5280;42.600;23.556;2023-01-25T04:38:58;94411.31;;;1.39;100.00
10466;BME280;5280;42.600;23.556;2023-01-25T04:41:27;94411.25;;;1.41;100.00
10466;BME280;5280;42.600;23.556;2023-01-25T04:43:55;94401.84;;;1.35;100.00
10466;BME280;5280;42.600;23.556;2023-01-25T04:46:40;94408.59;;;1.42;100.00
10466;BME280;5280;42.600;23.556;2023-01-25T04:49:11;94422.50;;;1.41;100.00
10466;BME280;5280;42.600;23.556;2023-01-25T04:51:40;94400.06;;;1.37;100.00
10466;BME280;5280;42.600;23.556;2023-01-25T04:54:07;94415.59;;;1.40;100.00
10466;BME280;5280;42.600;23.556;2023-01-25T04:56:35;94390.91;;;1.24;100.00
10466;BME280;5280;42.600;23.556;2023-01-25T04:59:07;94408.88;;;1.33;100.00
10466;BME280;5280;42.600;23.556;2023-01-25T05:01:34;94397.69;;;1.29;100.00
10466;BME280;5280;42.600;23.556;2023-01-25T05:04:01;94397.44;;;1.39;100.00
10466;BME280;5280;42.600;23.556;2023-01-25T05:06:28;94400.69;;;1.45;100.00
10466;BME280;5280;42.600;23.556;2023-01-25T05:08:55;94411.81;;;1.52;100.00
10466;BME280;5280;42.600;23.556;2023-01-25T05:11:23;94414.56;;;1.46;100.00
10466;BME280;5280;42.600;23.556;2023-01-25T05:13:52;94408.34;;;1.51;100.00
10466;BME280;5280;42.600;23.556;2023-01-25T05:16:20;94409.28;;;1.49;100.00
10466;BME280;5280;42.600;23.556;2023-01-25T05:18:49;94406.47;;;1.56;100.00
10466;BME280;5280;42.600;23.556;2023-01-25T05:21:16;94408.06;;;1.60;100.00
10466;BME280;5280;42.600;23.556;2023-01-25T05:24:01;94399.25;;;1.64;100.00
10466;BME280;5280;42.600;23.556;2023-01-25T05:26:28;94407.31;;;1.57;100.00
10466;BME280;5280;42.600;23.556;2023-01-25T05:29:14;94402.97;;;1.57;100.00
10466;BME280;5280;42.600;23.556;2023-01-25T05:31:43;94408.28;;;1.54;100.00
10466;BME280;5280;42.600;23.556;2023-01-25T05:34:10;94413.28;;;1.60;100.00
10466;BME280;5280;42.600;23.556;2023-01-25T05:36:37;94410.69;;;1.60;100.00
10466;BME280;5280;42.600;23.556;2023-01-25T05:39:05;94408.94;;;1.61;100.00
10466;BME280;5280;42.600;23.556;2023-01-25T05:41:38;94346.72;;;1.21;100.00
10466;BME280;5280;42.600;23.556;2023-01-25T05:44:14;94381.56;;;1.46;100.00
10466;BME280;5280;42.600;23.556;2023-01-25T05:46:47;94430.38;;;1.70;100.00
10466;BME280;5280;42.600;23.556;2023-01-25T05:49:30;94373.69;;;1.49;100.00
10466;BME280;5280;42.600;23.556;2023-01-25T05:51:57;94406.72;;;1.78;100.00
10466;BME280;5280;42.600;23.556;2023-01-25T05:54:26;94411.81;;;1.81;100.00
10466;BME280;5280;42.600;23.556;2023-01-25T05:56:53;94416.00;;;1.87;100.00
10466;BME280;5280;42.600;23.556;2023-01-25T05:59:20;94405.56;;;1.87;100.00
10466;BME280;5280;42.600;23.556;2023-01-25T06:01:49;94411.53;;;1.90;100.00
10466;BME280;5280;42.600;23.556;2023-01-25T06:04:16;94404.69;;;1.88;100.00
10466;BME280;5280;42.600;23.556;2023-01-25T06:06:44;94403.78;;;1.89;100.00
10466;BME280;5280;42.600;23.556;2023-01-25T06:09:12;94405.47;;;1.90;100.00
10466;BME280;5280;42.600;23.556;2023-01-25T06:11:51;94394.59;;;1.76;100.00
10466;BME280;5280;42.600;23.556;2023-01-25T06:14:18;94413.66;;;1.78;100.00
10466;BME280;5280;42.600;23.556;2023-01-25T06:16:58;94375.63;;;1.41;100.00
10466;BME280;5280;42.600;23.556;2023-01-25T06:19:25;94378.28;;;1.40;100.00
10466;BME280;5280;42.600;23.556;2023-01-25T06:21:53;94417.69;;;1.58;100.00
10466;BME280;5280;42.600;23.556;2023-01-25T06:24:20;94383.25;;;1.18;100.00
10466;BME280;5280;42.600;23.556;2023-01-25T06:27:03;94431.91;;;1.47;100.00
10466;BME280;5280;42.600;23.556;2023-01-25T06:29:35;94431.00;;;1.49;100.00
10466;BME280;5280;42.600;23.556;2023-01-25T06:32:04;94413.84;;;1.41;100.00
10466;BME280;5280;42.600;23.556;2023-01-25T06:34:31;94403.38;;;1.44;100.00
10466;BME280;5280;42.600;23.556;2023-01-25T06:36:58;94405.25;;;1.39;100.00
10466;BME280;5280;42.600;23.556;2023-01-25T06:39:30;94395.91;;;1.30;100.00
10466;BME280;5280;42.600;23.556;2023-01-25T06:42:01;94424.31;;;1.39;100.00
10466;BME280;5280;42.600;23.556;2023-01-25T06:44:28;94429.69;;;1.33;100.00
10466;BME280;5280;42.600;23.556;2023-01-25T06:46:55;94363.16;;;0.91;100.00
10466;BME280;5280;42.600;23.556;2023-01-25T06:49:23;94424.75;;;1.24;100.00
10466;BME280;5280;42.600;23.556;2023-01-25T06:51:50;94422.34;;;1.16;100.00
10466;BME280;5280;42.600;23.556;2023-01-25T06:54:17;94413.63;;;1.17;100.00
10466;BME280;5280;42.600;23.556;2023-01-25T06:56:45;94406.47;;;1.25;100.00
10466;BME280;5280;42.600;23.556;2023-01-25T06:59:13;94417.66;;;1.29;100.00
10466;BME280;5280;42.600;23.556;2023-01-25T07:01:40;94417.66;;;1.29;100.00
10466;BME280;5280;42.600;23.556;2023-01-25T07:04:08;94409.75;;;1.32;100.00
10466;BME280;5280;42.600;23.556;2023-01-25T07:06:38;94411.84;;;1.19;100.00
10466;BME280;5280;42.600;23.556;2023-01-25T07:09:10;94405.84;;;1.16;100.00
10466;BME280;5280;42.600;23.556;2023-01-25T07:11:38;94409.16;;;1.22;100.00
10466;BME280;5280;42.600;23.556;2023-01-25T07:14:09;94404.06;;;1.18;100.00
10466;BME280;5280;42.600;23.556;2023-01-25T07:16:37;94407.28;;;1.27;100.00
10466;BME280;5280;42.600;23.556;2023-01-25T07:19:05;94407.91;;;1.36;100.00
10466;BME280;5280;42.600;23.556;2023-01-25T07:21:33;94424.00;;;1.50;100.00
10466;BME280;5280;42.600;23.556;2023-01-25T07:24:03;94420.63;;;1.46;100.00
10466;BME280;5280;42.600;23.556;2023-01-25T07:26:31;94402.34;;;1.49;100.00
10466;BME280;5280;42.600;23.556;2023-01-25T07:29:03;94417.88;;;1.52;100.00
10466;BME280;5280;42.600;23.556;2023-01-25T07:31:30;94400.28;;;1.29;100.00
10466;BME280;5280;42.600;23.556;2023-01-25T07:33:58;94420.88;;;1.39;100.00
10466;BME280;5280;42.600;23.556;2023-01-25T07:36:25;94429.53;;;1.39;100.00
10466;BME280;5280;42.600;23.556;2023-01-25T07:38:53;94357.09;;;0.90;100.00
10466;BME280;5280;42.600;23.556;2023-01-25T07:41:22;94425.09;;;1.43;100.00
10466;BME280;5280;42.600;23.556;2023-01-25T07:43:49;94420.06;;;1.35;100.00
10466;BME280;5280;42.600;23.556;2023-01-25T07:46:17;94424.66;;;1.27;100.00
10466;BME280;5280;42.600;23.556;2023-01-25T07:48:46;94423.78;;;1.26;100.00
10466;BME280;5280;42.600;23.556;2023-01-25T07:51:15;94423.47;;;1.39;100.00
10466;BME280;5280;42.600;23.556;2023-01-25T07:53:53;94426.97;;;1.38;100.00
10466;BME280;5280;42.600;23.556;2023-01-25T07:56:23;94427.94;;;1.34;100.00
10466;BME280;5280;42.600;23.556;2023-01-25T07:58:51;94430.50;;;1.35;100.00
10466;BME280;5280;42.600;23.556;2023-01-25T08:01:20;94405.28;;;1.37;100.00
10466;BME280;5280;42.600;23.556;2023-01-25T08:03:48;94401.09;;;1.32;100.00
10466;BME280;5280;42.600;23.556;2023-01-25T08:06:15;94424.97;;;1.47;100.00
10466;BME280;5280;42.600;23.556;2023-01-25T08:08:44;94405.00;;;1.46;100.00
10466;BME280;5280;42.600;23.556;2023-01-25T08:11:14;94416.97;;;1.53;100.00
10466;BME280;5280;42.600;23.556;2023-01-25T08:13:43;94429.72;;;1.64;100.00
10466;BME280;5280;42.600;23.556;2023-01-25T08:16:11;94416.81;;;1.59;100.00
10466;BME280;5280;42.600;23.556;2023-01-25T08:18:38;94407.41;;;1.54;100.00
10466;BME280;5280;42.600;23.556;2023-01-25T08:21:05;94423.63;;;1.63;100.00
10466;BME280;5280;42.600;23.556;2023-01-25T08:23:32;94426.88;;;1.71;100.00
10466;BME280;5280;42.600;23.556;2023-01-25T08:26:01;94415.53;;;1.74;100.00
10466;BME280;5280;42.600;23.556;2023-01-25T08:28:28;94371.25;;;1.43;100.00
10466;BME280;5280;42.600;23.556;2023-01-25T08:31:04;94424.88;;;1.80;100.00
10466;BME280;5280;42.600;23.556;2023-01-25T08:33:32;94415.25;;;1.83;100.00
10466;BME280;5280;42.600;23.556;2023-01-25T08:35:59;94414.94;;;1.94;100.00
10466;BME280;5280;42.600;23.556;2023-01-25T08:38:26;94399.63;;;1.82;100.00
10466;BME280;5280;42.600;23.556;2023-01-25T08:40:53;94420.03;;;1.97;100.00
10466;BME280;5280;42.600;23.556;2023-01-25T08:43:20;94411.88;;;2.09;100.00
10466;BME280;5280;42.600;23.556;2023-01-25T08:45:47;94414.81;;;1.97;100.00
10466;BME280;5280;42.600;23.556;2023-01-25T08:48:15;94404.44;;;1.95;100.00
10466;BME280;5280;42.600;23.556;2023-01-25T08:50:44;94409.50;;;2.00;100.00
10466;BME280;5280;42.600;23.556;2023-01-25T08:53:12;94411.00;;;2.08;100.00
10466;BME280;5280;42.600;23.556;2023-01-25T08:55:39;94420.28;;;2.17;100.00
10466;BME280;5280;42.600;23.556;2023-01-25T08:58:08;94400.50;;;2.10;100.00
10466;BME280;5280;42.600;23.556;2023-01-25T09:00:36;94426.94;;;2.27;100.00
10466;BME280;5280;42.600;23.556;2023-01-25T09:03:10;94417.06;;;2.37;100.00
10466;BME280;5280;42.600;23.556;2023-01-25T09:05:38;94413.41;;;2.42;100.00
10466;BME280;5280;42.600;23.556;2023-01-25T09:08:07;94411.47;;;2.49;100.00
10466;BME280;5280;42.600;23.556;2023-01-25T09:10:37;94395.16;;;2.42;100.00
10466;BME280;5280;42.600;23.556;2023-01-25T09:13:03;94392.28;;;2.50;100.00
10466;BME280;5280;42.600;23.556;2023-01-25T09:15:30;94407.00;;;2.52;100.00
10466;BME280;5280;42.600;23.556;2023-01-25T09:17:57;94312.47;;;1.92;100.00
10466;BME280;5280;42.600;23.556;2023-01-25T09:20:24;94405.84;;;2.61;100.00
10466;BME280;5280;42.600;23.556;2023-01-25T09:22:53;94371.72;;;2.41;100.00
10466;BME280;5280;42.600;23.556;2023-01-25T09:25:20;94390.00;;;2.67;100.00
10466;BME280;5280;42.600;23.556;2023-01-25T09:27:48;94395.88;;;2.74;100.00
10466;BME280;5280;42.600;23.556;2023-01-25T09:30:16;94354.50;;;2.62;100.00
10466;BME280;5280;42.600;23.556;2023-01-25T09:32:43;94382.31;;;2.89;100.00
10466;BME280;5280;42.600;23.556;2023-01-25T09:35:10;94384.81;;;2.92;100.00
10466;BME280;5280;42.600;23.556;2023-01-25T09:37:37;94381.50;;;2.87;100.00
10466;BME280;5280;42.600;23.556;2023-01-25T09:40:13;94366.94;;;2.80;100.00
10466;BME280;5280;42.600;23.556;2023-01-25T09:42:59;94376.00;;;2.94;100.00
10466;BME280;5280;42.600;23.556;2023-01-25T09:45:32;94356.41;;;2.83;100.00
10466;BME280;5280;42.600;23.556;2023-01-25T09:48:08;94345.06;;;2.84;100.00
10466;BME280;5280;42.600;23.556;2023-01-25T09:50:37;94341.75;;;2.79;100.00
10466;BME280;5280;42.600;23.556;2023-01-25T09:53:16;94318.78;;;2.64;100.00
10466;BME280;5280;42.600;23.556;2023-01-25T09:55:51;94343.28;;;2.84;100.00
10466;BME280;5280;42.600;23.556;2023-01-25T09:58:20;94348.22;;;2.93;100.00
10466;BME280;5280;42.600;23.556;2023-01-25T10:00:51;94355.50;;;2.84;100.00
10466;BME280;5280;42.600;23.556;2023-01-25T10:03:21;94352.19;;;2.79;100.00
10466;BME280;5280;42.600;23.556;2023-01-25T10:05:52;94344.66;;;2.70;100.00
10466;BME280;5280;42.600;23.556;2023-01-25T10:08:26;94338.59;;;2.69;100.00
10466;BME280;5280;42.600;23.556;2023-01-25T10:10:59;94338.66;;;2.68;100.00
10466;BME280;5280;42.600;23.556;2023-01-25T10:13:29;94325.94;;;2.58;100.00
10466;BME280;5280;42.600;23.556;2023-01-25T10:16:04;94327.53;;;2.63;100.00
10466;BME280;5280;42.600;23.556;2023-01-25T10:18:36;94310.50;;;2.51;100.00
10466;BME280;5280;42.600;23.556;2023-01-25T10:21:09;94316.84;;;2.44;100.00
10466;BME280;5280;42.600;23.556;2023-01-25T10:23:52;94313.94;;;2.53;100.00
10466;BME280;5280;42.600;23.556;2023-01-25T10:26:29;94293.66;;;2.35;100.00
10466;BME280;5280;42.600;23.556;2023-01-25T10:29:01;94310.47;;;2.52;100.00
10466;BME280;5280;42.600;23.556;2023-01-25T10:31:39;94315.94;;;2.45;100.00
10466;BME280;5280;42.600;23.556;2023-01-25T10:34:16;94316.25;;;2.36;100.00
10466;BME280;5280;42.600;23.556;2023-01-25T10:36:47;94320.78;;;2.29;100.00
10466;BME280;5280;42.600;23.556;2023-01-25T10:39:15;94307.75;;;2.29;100.00
10466;BME280;5280;42.600;23.556;2023-01-25T10:41:48;94295.66;;;2.28;100.00
10466;BME280;5280;42.600;23.556;2023-01-25T10:44:16;94289.50;;;2.29;100.00
10466;BME280;5280;42.600;23.556;2023-01-25T10:46:57;94297.09;;;2.37;100.00
10466;BME280;5280;42.600;23.556;2023-01-25T10:49:29;94284.47;;;2.49;100.00
10466;BME280;5280;42.600;23.556;2023-01-25T10:52:11;94285.84;;;2.59;100.00
10466;BME280;5280;42.600;23.556;2023-01-25T10:54:40;94283.91;;;2.66;100.00
10466;BME280;5280;42.600;23.556;2023-01-25T10:57:12;94279.00;;;2.57;99.42
10466;BME280;5280;42.600;23.556;2023-01-25T10:59:43;94284.91;;;2.62;99.63
10466;BME280;5280;42.600;23.556;2023-01-25T11:02:38;94247.81;;;2.54;100.00
10466;BME280;5280;42.600;23.556;2023-01-25T11:05:24;94283.03;;;2.66;100.00
10466;BME280;5280;42.600;23.556;2023-01-25T11:07:54;94284.09;;;2.60;100.00
10466;BME280;5280;42.600;23.556;2023-01-25T11:10:29;94277.94;;;2.63;100.00
10466;BME280;5280;42.600;23.556;2023-01-25T11:16:19;94246.63;;;2.63;100.00
10466;BME280;5280;42.600;23.556;2023-01-25T11:18:52;94266.16;;;2.76;100.00
10466;BME280;5280;42.600;23.556;2023-01-25T11:21:21;94269.41;;;2.82;100.00
10466;BME280;5280;42.600;23.556;2023-01-25T11:24:01;94262.97;;;2.92;100.00
10466;BME280;5280;42.600;23.556;2023-01-25T11:26:30;94253.53;;;2.88;100.00
10466;BME280;5280;42.600;23.556;2023-01-25T11:29:15;94246.69;;;2.84;100.00
10466;BME280;5280;42.600;23.556;2023-01-25T11:31:47;94258.81;;;2.87;100.00
10466;BME280;5280;42.600;23.556;2023-01-25T11:34:17;94251.31;;;2.78;99.19
10466;BME280;5280;42.600;23.556;2023-01-25T11:36:56;94243.69;;;2.72;100.00
10466;BME280;5280;42.600;23.556;2023-01-25T11:39:44;94248.69;;;2.78;100.00
10466;BME280;5280;42.600;23.556;2023-01-25T11:42:32;94237.25;;;2.82;100.00
10466;BME280;5280;42.600;23.556;2023-01-25T11:48:23;94242.94;;;2.93;100.00
10466;BME280;5280;42.600;23.556;2023-01-25T11:51:00;94230.38;;;3.02;100.00
10466;BME280;5280;42.600;23.556;2023-01-25T11:53:45;94217.22;;;3.06;99.99
10466;BME280;5280;42.600;23.556;2023-01-25T11:56:26;94217.00;;;2.88;99.68
10466;BME280;5280;42.600;23.556;2023-01-25T11:59:06;94220.53;;;3.09;100.00
10466;BME280;5280;42.600;23.556;2023-01-25T12:01:49;94213.28;;;3.17;100.00
10466;BME280;5280;42.600;23.556;2023-01-25T12:04:40;94200.69;;;3.05;98.03
10466;BME280;5280;42.600;23.556;2023-01-25T12:07:21;94199.84;;;3.04;98.14
10466;BME280;5280;42.600;23.556;2023-01-25T12:09:59;94200.63;;;3.07;99.04
10466;BME280;5280;42.600;23.556;2023-01-25T12:12:40;94208.06;;;3.17;97.27
10466;BME280;5280;42.600;23.556;2023-01-25T12:15:37;94198.06;;;3.05;97.56
10466;BME280;5280;42.600;23.556;2023-01-25T12:18:32;94190.53;;;2.97;96.99
10466;BME280;5280;42.600;23.556;2023-01-25T12:21:05;94195.25;;;2.88;100.00
10466;BME280;5280;42.600;23.556;2023-01-25T12:23:51;94184.56;;;2.94;99.92
10466;BME280;5280;42.600;23.556;2023-01-25T12:26:24;94200.63;;;3.07;99.19
10466;BME280;5280;42.600;23.556;2023-01-25T12:29:00;94184.47;;;2.97;99.68
10466;BME280;5280;42.600;23.556;2023-01-25T12:31:36;94191.09;;;3.06;99.57
10466;BME280;5280;42.600;23.556;2023-01-25T12:34:10;94177.53;;;2.96;98.92
10466;BME280;5280;42.600;23.556;2023-01-25T12:36:48;94108.56;;;2.33;96.13
10466;BME280;5280;42.600;23.556;2023-01-25T12:39:47;94212.47;;;2.93;98.08
10466;BME280;5280;42.600;23.556;2023-01-25T12:42:17;94183.28;;;2.82;98.75
10466;BME280;5280;42.600;23.556;2023-01-25T12:44:53;94129.66;;;2.50;98.62
10466;BME280;5280;42.600;23.556;2023-01-25T12:47:28;94147.69;;;2.56;99.22
10466;BME280;5280;42.600;23.556;2023-01-25T12:50:05;94187.78;;;2.79;98.13
10466;BME280;5280;42.600;23.556;2023-01-25T12:52:46;94167.16;;;2.71;97.65
10466;BME280;5280;42.600;23.556;2023-01-25T12:55:16;94181.75;;;2.77;98.23
10466;BME280;5280;42.600;23.556;2023-01-25T12:57:51;94184.22;;;2.80;98.83
10466;BME280;5280;42.600;23.556;2023-01-25T13:00:22;94179.31;;;2.72;97.77
10466;BME280;5280;42.600;23.556;2023-01-25T13:03:04;94174.59;;;2.82;98.35
10466;BME280;5280;42.600;23.556;2023-01-25T13:05:37;94166.09;;;2.77;98.37
10466;BME280;5280;42.600;23.556;2023-01-25T13:08:18;94172.03;;;2.80;98.14
10466;BME280;5280;42.600;23.556;2023-01-25T13:10:51;94170.22;;;2.82;99.03
10466;BME280;5280;42.600;23.556;2023-01-25T13:13:22;94161.03;;;2.72;99.75
10466;BME280;5280;42.600;23.556;2023-01-25T13:15:50;94156.50;;;2.77;98.24
10466;BME280;5280;42.600;23.556;2023-01-25T13:18:37;94162.44;;;2.81;98.93
10466;BME280;5280;42.600;23.556;2023-01-25T13:21:09;94153.84;;;2.79;97.38
10466;BME280;5280;42.600;23.556;2023-01-25T13:23:39;94151.47;;;2.73;97.34
10466;BME280;5280;42.600;23.556;2023-01-25T13:26:35;94160.13;;;2.73;96.72
10466;BME280;5280;42.600;23.556;2023-01-25T13:29:03;94159.53;;;2.65;98.33